Time;durP1;ratioP1;P1;durP2;ratioP2;P2;SDS_P1;SDS_P2;PMS_P1;PMS_P2;Temp;Humidity;BMP_temperature;BMP_pressure;BME280_temperature;BME280_humidity;BME280_pressure;Samples;Min_cycle;Max_cycle;Signal;HPM_P1;HPM_P2
2021/12/27 00:00:07;;;;;;;91.30;39.90;;;;;;;-12.66;74.95;100772.83;84582;1330;24261;-73
2021/12/27 00:02:40;;;;;;;102.30;39.60;;;;;;;-12.67;74.74;100770.36;84591;1327;22640;-73
2021/12/27 00:04:51;;;;;;;97.20;41.50;;;;;;;-12.63;74.89;100771.65;84614;1329;24272;-72
2021/12/27 00:07:00;;;;;;;94.60;39.20;;;;;;;-12.65;74.47;100771.55;84590;1329;22727;-73
2021/12/27 00:09:10;;;;;;;87.90;37.90;;;;;;;-12.72;74.32;100770.42;84600;1329;22919;-73
2021/12/27 00:11:24;;;;;;;94.70;40.40;;;;;;;-12.79;74.22;100770.19;84560;1331;24236;-72
2021/12/27 00:13:36;;;;;;;84.00;38.30;;;;;;;-12.81;74.34;100769.19;84597;1329;22606;-73
2021/12/27 00:15:47;;;;;;;86.40;37.10;;;;;;;-12.74;74.50;100774.01;83920;1330;1002930;-73
2021/12/27 00:17:58;;;;;;;93.10;37.60;;;;;;;-12.74;74.26;100766.81;84524;1329;24239;-73
2021/12/27 00:20:10;;;;;;;87.50;37.40;;;;;;;-12.78;74.11;100770.62;84592;1328;25467;-73
2021/12/27 00:22:21;;;;;;;90.50;38.70;;;;;;;-12.83;74.01;100770.61;84495;1331;22795;-73
2021/12/27 00:24:34;;;;;;;84.10;38.50;;;;;;;-12.87;74.01;100772.67;84525;1328;23063;-74
2021/12/27 00:26:48;;;;;;;85.90;39.60;;;;;;;-12.93;73.91;100773.80;84584;1329;22590;-74
2021/12/27 00:28:57;;;;;;;76.90;36.00;;;;;;;-12.98;74.00;100777.38;84613;1329;22604;-73
2021/12/27 00:31:07;;;;;;;94.90;37.70;;;;;;;-12.99;74.20;100779.52;84596;1325;22575;-73
2021/12/27 00:33:19;;;;;;;76.70;31.50;;;;;;;-12.95;74.47;100777.60;84587;1330;25471;-73
2021/12/27 00:35:32;;;;;;;84.20;37.80;;;;;;;-12.88;74.56;100779.50;84621;1329;24178;-73
2021/12/27 00:37:42;;;;;;;82.70;36.70;;;;;;;-12.88;74.36;100781.88;84518;1332;22589;-74
2021/12/27 00:39:55;;;;;;;90.30;36.70;;;;;;;-12.87;74.50;100783.62;84594;1330;23946;-74
2021/12/27 00:42:07;;;;;;;98.00;40.30;;;;;;;-12.85;74.23;100788.27;84592;1329;22808;-74
2021/12/27 00:44:19;;;;;;;89.20;38.20;;;;;;;-12.92;74.09;100785.84;84625;1327;22669;-74
2021/12/27 00:46:29;;;;;;;80.40;37.50;;;;;;;-12.98;74.03;100786.13;83928;1329;1003929;-74
2021/12/27 00:48:42;;;;;;;85.20;38.10;;;;;;;-13.01;74.00;100789.15;84526;1331;22619;-74
2021/12/27 00:50:52;;;;;;;92.20;37.40;;;;;;;-13.06;73.90;100789.71;84572;1330;22644;-73
2021/12/27 00:53:01;;;;;;;76.20;32.30;;;;;;;-13.09;73.83;100790.28;84598;1329;25297;-75
2021/12/27 00:55:15;;;;;;;89.90;36.30;;;;;;;-13.13;73.92;100787.86;84589;1329;22590;-72
2021/12/27 00:57:24;;;;;;;90.80;38.20;;;;;;;-13.17;73.98;100789.13;84640;1330;24276;-73
2021/12/27 00:59:34;;;;;;;82.00;36.10;;;;;;;-13.18;73.95;100789.94;83886;1328;1003963;-73
2021/12/27 01:01:45;;;;;;;83.90;35.00;;;;;;;-13.21;73.85;100790.73;84581;1325;22628;-73
2021/12/27 01:03:59;;;;;;;79.90;36.90;;;;;;;-13.21;73.88;100789.71;84588;1329;22750;-72
2021/12/27 01:06:08;;;;;;;90.10;37.80;;;;;;;-13.18;73.94;100790.89;84601;1330;24255;-74
2021/12/27 01:08:18;;;;;;;85.70;37.10;;;;;;;-13.17;73.97;100783.43;84574;1330;22950;-72
2021/12/27 01:13:03;;;;;;;93.70;39.60;;;;;;;-13.21;73.66;100780.83;84323;1333;22789;-72
2021/12/27 01:15:33;;;;;;;88.60;37.60;;;;;;;-13.27;73.47;100782.51;83642;1336;1003512;-72
2021/12/27 01:17:46;;;;;;;84.30;37.60;;;;;;;-13.32;73.48;100786.06;84391;1330;24352;-73
2021/12/27 01:19:55;;;;;;;82.90;38.30;;;;;;;-13.39;73.25;100784.45;84565;1331;25467;-73
2021/12/27 01:22:08;;;;;;;89.20;37.90;;;;;;;-13.42;73.41;100785.04;84588;1329;22609;-73
2021/12/27 01:24:18;;;;;;;83.60;36.00;;;;;;;-13.46;73.43;100792.02;84597;1327;22787;-74
2021/12/27 01:26:27;;;;;;;82.60;35.20;;;;;;;-13.47;73.54;100792.30;84614;1330;22668;-73
2021/12/27 01:28:37;;;;;;;86.10;37.30;;;;;;;-13.48;73.30;100789.38;84592;1329;22648;-73
2021/12/27 01:30:49;;;;;;;95.90;38.00;;;;;;;-13.45;73.64;100789.05;84503;1332;22850;-73
2021/12/27 01:33:01;;;;;;;86.70;36.00;;;;;;;-13.42;73.59;100785.71;84595;1330;25584;-74
2021/12/27 01:35:13;;;;;;;91.40;37.20;;;;;;;-13.39;73.54;100785.24;84613;1330;22671;-72
2021/12/27 01:37:23;;;;;;;86.90;35.90;;;;;;;-13.42;73.38;100790.77;84499;1327;22882;-72
2021/12/27 01:39:31;;;;;;;73.20;30.90;;;;;;;-13.46;73.34;100791.00;84583;1329;22546;-74
2021/12/27 01:41:41;;;;;;;89.30;38.20;;;;;;;-13.49;73.27;100791.11;84584;1329;22635;-73
2021/12/27 01:43:54;;;;;;;96.40;38.10;;;;;;;-13.47;73.64;100795.79;83896;1329;1003907;-75
2021/12/27 01:46:05;;;;;;;82.30;36.60;;;;;;;-13.43;73.46;100799.27;84587;1330;24374;-74
2021/12/27 01:48:21;;;;;;;92.70;39.00;;;;;;;-13.43;73.68;100800.61;84579;1329;24091;-73
2021/12/27 01:50:31;;;;;;;103.30;40.00;;;;;;;-13.41;73.57;100803.22;84602;1330;22717;-73
2021/12/27 01:52:40;;;;;;;100.00;39.70;;;;;;;-13.40;73.62;100802.98;84570;1325;22587;-73
2021/12/27 01:54:53;;;;;;;89.10;38.50;;;;;;;-13.39;73.48;100799.66;84582;1330;22601;-72
2021/12/27 01:57:03;;;;;;;90.70;38.20;;;;;;;-13.45;73.46;100799.28;84591;1329;22655;-72
2021/12/27 01:59:15;;;;;;;91.80;38.00;;;;;;;-13.42;73.33;100798.65;84577;1330;22610;-73
2021/12/27 02:01:25;;;;;;;88.40;36.20;;;;;;;-13.45;73.18;100803.52;83867;1330;1002444;-72
2021/12/27 02:03:35;;;;;;;94.90;38.90;;;;;;;-13.52;73.11;100808.55;84517;1330;24248;-73
2021/12/27 02:05:45;;;;;;;92.50;38.60;;;;;;;-13.58;73.12;100807.52;84595;1330;25646;-71
2021/12/27 02:07:57;;;;;;;95.10;38.30;;;;;;;-13.59;73.08;100814.19;84582;1329;22806;-71
2021/12/27 02:10:12;;;;;;;98.10;39.00;;;;;;;-13.62;73.04;100814.95;84601;1329;22795;-71
2021/12/27 02:12:21;;;;;;;94.80;37.30;;;;;;;-13.67;73.10;100812.50;84609;1330;22626;-72
2021/12/27 02:14:30;;;;;;;84.70;36.90;;;;;;;-13.69;73.03;100819.08;83881;1330;1003809;-72
2021/12/27 02:16:40;;;;;;;85.90;35.50;;;;;;;-13.68;73.14;100815.44;84619;1329;22836;-73
2021/12/27 02:18:49;;;;;;;89.10;36.10;;;;;;;-13.69;73.18;100817.34;84599;1329;24274;-72
2021/12/27 02:21:02;;;;;;;85.10;34.30;;;;;;;-13.69;73.48;100818.05;84620;1331;22593;-72
2021/12/27 02:23:16;;;;;;;85.60;36.30;;;;;;;-13.63;73.67;100819.45;84597;1329;22671;-72
2021/12/27 02:25:28;;;;;;;84.40;35.80;;;;;;;-13.57;73.61;100812.30;84616;1329;24258;-72
2021/12/27 02:27:40;;;;;;;89.60;36.00;;;;;;;-13.63;73.24;100811.21;84589;1327;22665;-72
2021/12/27 02:29:49;;;;;;;87.50;38.20;;;;;;;-13.67;73.21;100808.59;84590;1331;26151;-72
2021/12/27 02:32:02;;;;;;;77.40;34.90;;;;;;;-13.72;73.09;100818.17;84596;1329;22609;-71
2021/12/27 02:34:11;;;;;;;87.80;37.50;;;;;;;-13.76;73.07;100820.22;84585;1325;22779;-73
2021/12/27 02:36:24;;;;;;;87.80;37.80;;;;;;;-13.79;73.19;100822.41;84597;1329;22594;-72
2021/12/27 02:38:34;;;;;;;86.40;34.60;;;;;;;-13.84;73.07;100817.20;84411;1330;277759;-73
2021/12/27 02:40:44;;;;;;;72.50;34.40;;;;;;;-13.86;73.01;100816.39;84626;1330;24441;-73
2021/12/27 02:43:06;;;;;;;78.40;36.60;;;;;;;-13.90;73.29;100822.70;84593;1329;23154;-72
2021/12/27 02:45:15;;;;;;;81.40;34.50;;;;;;;-13.88;73.34;100821.29;83928;1329;1002696;-72
2021/12/27 02:47:25;;;;;;;82.00;34.80;;;;;;;-13.89;73.28;100821.77;83916;1330;1002934;-72
2021/12/27 02:49:34;;;;;;;89.70;37.00;;;;;;;-13.92;73.12;100819.00;84604;1329;22617;-72
2021/12/27 02:51:43;;;;;;;84.90;35.10;;;;;;;-13.94;73.20;100814.38;84594;1327;22723;-73
2021/12/27 02:53:52;;;;;;;88.90;35.30;;;;;;;-13.96;73.20;100813.08;84589;1330;25493;-72
2021/12/27 02:56:06;;;;;;;86.30;36.90;;;;;;;-13.98;73.38;100819.00;84592;1335;22593;-72
2021/12/27 02:58:15;;;;;;;82.70;35.50;;;;;;;-13.97;73.55;100818.69;84606;1327;22741;-73
2021/12/27 03:00:27;;;;;;;90.30;36.80;;;;;;;-13.96;73.53;100817.06;84610;1330;22626;-73
2021/12/27 03:02:38;;;;;;;84.50;37.80;;;;;;;-13.96;73.50;100818.23;84616;1330;24156;-72
2021/12/27 03:04:47;;;;;;;82.80;37.00;;;;;;;-13.96;73.46;100818.09;83915;1329;1003549;-73
2021/12/27 03:06:59;;;;;;;86.20;37.60;;;;;;;-13.97;73.40;100816.21;84612;1329;23531;-73
2021/12/27 03:09:08;;;;;;;75.90;36.40;;;;;;;-13.99;73.38;100813.02;84611;1329;22689;-72
2021/12/27 03:11:20;;;;;;;90.70;39.70;;;;;;;-14.00;73.44;100809.23;84615;1330;22795;-72
2021/12/27 03:13:30;;;;;;;97.30;37.80;;;;;;;-14.02;73.35;100807.98;84608;1330;24238;-72
2021/12/27 03:15:42;;;;;;;86.40;37.40;;;;;;;-13.99;73.59;100807.48;84616;1330;22681;-72
2021/12/27 03:17:52;;;;;;;89.40;37.40;;;;;;;-13.98;73.36;100806.02;84620;1329;24410;-72
2021/12/27 03:20:03;;;;;;;114.00;40.60;;;;;;;-14.00;73.34;100802.05;84635;1330;23918;-72
2021/12/27 03:22:12;;;;;;;95.70;39.70;;;;;;;-13.98;73.55;100802.04;84603;1329;24090;-72
2021/12/27 03:24:24;;;;;;;94.40;40.10;;;;;;;-13.97;73.50;100798.92;84615;1329;22666;-72
2021/12/27 03:26:33;;;;;;;105.10;41.70;;;;;;;-13.97;73.32;100796.73;83925;1330;1003480;-72
2021/12/27 03:28:45;;;;;;;109.70;43.20;;;;;;;-13.96;73.31;100797.45;84604;1329;22674;-72
2021/12/27 03:30:55;;;;;;;105.20;42.80;;;;;;;-13.99;73.12;100800.92;84631;1330;22620;-71
2021/12/27 03:33:08;;;;;;;110.40;44.00;;;;;;;-13.99;73.12;100797.58;84596;1332;24183;-71
2021/12/27 03:35:25;;;;;;;97.40;39.90;;;;;;;-14.00;73.07;100798.55;84597;1327;22710;-73
2021/12/27 03:37:38;;;;;;;95.20;38.50;;;;;;;-14.00;73.00;100794.48;84601;1330;26080;-73
2021/12/27 03:39:47;;;;;;;85.30;37.00;;;;;;;-14.05;72.87;100792.70;84579;1327;22638;-71
2021/12/27 03:41:56;;;;;;;88.50;35.60;;;;;;;-14.09;72.82;100795.47;84617;1330;22603;-71
2021/12/27 03:44:09;;;;;;;85.60;35.20;;;;;;;-14.12;72.83;100791.20;83897;1321;1002959;-71
2021/12/27 03:46:18;;;;;;;87.50;37.20;;;;;;;-14.14;73.06;100795.30;84580;1330;26214;-72
2021/12/27 03:48:30;;;;;;;105.90;40.20;;;;;;;-14.10;73.29;100795.53;84609;1330;22611;-72
2021/12/27 03:50:40;;;;;;;104.10;39.90;;;;;;;-14.08;73.37;100795.53;83909;1330;1003192;-73
2021/12/27 03:52:52;;;;;;;107.80;42.40;;;;;;;-14.09;73.30;100792.59;84604;1330;22678;-73
2021/12/27 03:55:01;;;;;;;105.00;40.20;;;;;;;-14.13;73.06;100789.31;84597;1329;22636;-73
2021/12/27 03:57:14;;;;;;;109.10;40.00;;;;;;;-14.15;73.23;100790.48;84590;1329;22567;-72
2021/12/27 03:59:51;;;;;;;100.00;38.60;;;;;;;-14.16;73.22;100788.44;84619;1330;22673;-72
2021/12/27 04:02:03;;;;;;;98.40;39.10;;;;;;;-14.18;73.18;100782.40;83917;1333;1003015;-73
2021/12/27 04:04:15;;;;;;;91.70;38.10;;;;;;;-14.22;73.21;100782.16;84610;1329;22627;-74
2021/12/27 04:06:25;;;;;;;89.60;38.10;;;;;;;-14.25;73.12;100781.94;83921;1327;1003031;-74
2021/12/27 04:08:34;;;;;;;87.10;35.60;;;;;;;-14.28;73.14;100782.45;84526;1333;22845;-73
2021/12/27 04:10:47;;;;;;;87.70;36.30;;;;;;;-14.29;72.87;100780.38;84593;1329;22668;-73
2021/12/27 04:12:59;;;;;;;91.70;34.70;;;;;;;-14.27;73.10;100779.33;84599;1321;22693;-73
2021/12/27 04:15:11;;;;;;;86.70;34.40;;;;;;;-14.29;73.02;100781.17;84623;1329;23647;-74
2021/12/27 04:17:20;;;;;;;103.40;40.20;;;;;;;-14.28;72.96;100784.06;84648;1329;22652;-74
2021/12/27 04:19:32;;;;;;;91.50;36.70;;;;;;;-14.23;73.18;100787.75;84617;1330;26076;-74
2021/12/27 04:21:41;;;;;;;87.30;35.20;;;;;;;-14.22;73.28;100788.23;84604;1329;22621;-72
2021/12/27 04:23:50;;;;;;;117.70;45.50;;;;;;;-14.18;73.14;100790.30;84607;1321;22587;-72
2021/12/27 04:26:00;;;;;;;113.40;43.40;;;;;;;-14.19;73.07;100788.73;84613;1329;24619;-73
2021/12/27 04:28:09;;;;;;;116.00;42.80;;;;;;;-14.21;72.95;100789.94;84608;1329;24132;-73
2021/12/27 04:30:21;;;;;;;106.90;44.00;;;;;;;-14.20;73.00;100785.66;84646;1330;22637;-73
2021/12/27 04:32:30;;;;;;;98.50;40.50;;;;;;;-14.20;73.25;100784.99;84534;1331;22845;-73
2021/12/27 04:34:42;;;;;;;86.50;32.60;;;;;;;-14.15;73.14;100778.27;84592;1330;26503;-72
2021/12/27 04:36:54;;;;;;;99.80;36.30;;;;;;;-14.13;73.09;100774.88;84607;1330;22763;-74
2021/12/27 04:39:07;;;;;;;85.60;34.30;;;;;;;-14.16;73.02;100772.88;84567;1330;22721;-75
2021/12/27 04:41:19;;;;;;;84.10;36.20;;;;;;;-14.21;72.81;100772.48;83926;1329;1002994;-75
2021/12/27 04:43:28;;;;;;;79.40;35.10;;;;;;;-14.26;72.81;100768.45;84580;1331;22695;-74
2021/12/27 04:45:40;;;;;;;89.30;37.30;;;;;;;-14.27;72.94;100771.73;84386;1332;22626;-74
2021/12/27 04:47:52;;;;;;;95.10;38.80;;;;;;;-14.28;72.88;100773.02;84556;1332;22743;-74
2021/12/27 04:50:05;;;;;;;82.90;36.70;;;;;;;-14.31;72.92;100771.20;84551;1329;22625;-74
2021/12/27 04:52:14;;;;;;;92.40;36.90;;;;;;;-14.31;73.02;100768.34;84540;1331;22842;-73
2021/12/27 04:54:26;;;;;;;90.60;39.80;;;;;;;-14.31;72.97;100765.01;84541;1332;25519;-75
2021/12/27 04:56:37;;;;;;;103.20;41.20;;;;;;;-14.26;73.04;100769.16;84558;1333;26768;-74
2021/12/27 04:58:50;;;;;;;98.50;39.50;;;;;;;-14.20;73.12;100765.38;84562;1331;23135;-75
2021/12/27 05:00:58;;;;;;;93.30;39.10;;;;;;;-14.20;73.12;100762.67;84592;1333;22700;-74
2021/12/27 05:03:08;;;;;;;92.60;39.30;;;;;;;-14.15;73.12;100764.02;84466;1331;23944;-74
2021/12/27 05:05:16;;;;;;;99.70;38.10;;;;;;;-14.15;72.93;100764.54;84567;1331;22577;-74
2021/12/27 05:07:28;;;;;;;102.40;39.90;;;;;;;-14.16;72.95;100763.49;84549;1330;22660;-72
2021/12/27 05:09:38;;;;;;;90.60;38.30;;;;;;;-14.18;72.79;100767.37;84552;1332;24196;-72
2021/12/27 05:11:47;;;;;;;100.40;39.60;;;;;;;-14.17;72.86;100768.44;84554;1334;22853;-72
2021/12/27 05:13:56;;;;;;;93.30;40.60;;;;;;;-14.24;72.52;100769.98;84558;1330;22622;-74
2021/12/27 05:16:05;;;;;;;94.10;38.10;;;;;;;-14.30;72.45;100768.73;83778;1332;1002608;-73
2021/12/27 05:18:14;;;;;;;81.70;35.70;;;;;;;-14.35;72.73;100762.73;84561;1331;22864;-70
2021/12/27 05:20:23;;;;;;;78.60;34.80;;;;;;;-14.35;72.73;100763.34;84555;1332;24297;-71
2021/12/27 05:22:32;;;;;;;88.20;34.10;;;;;;;-14.37;72.43;100766.41;84570;1326;22793;-71
2021/12/27 05:24:41;;;;;;;88.00;37.90;;;;;;;-14.42;72.59;100764.10;84540;1332;22614;-71
2021/12/27 05:26:50;;;;;;;88.20;36.70;;;;;;;-14.47;72.60;100765.74;84556;1331;23018;-71
2021/12/27 05:29:00;;;;;;;78.70;35.90;;;;;;;-14.51;72.41;100770.52;84520;1331;22687;-71
2021/12/27 05:31:09;;;;;;;81.80;34.50;;;;;;;-14.51;72.71;100775.35;84578;1331;22657;-73
2021/12/27 05:33:19;;;;;;;83.00;35.90;;;;;;;-14.53;72.66;100775.25;84546;1331;25644;-73
2021/12/27 05:35:28;;;;;;;66.70;28.40;;;;;;;-14.54;72.58;100775.96;84561;1332;26515;-72
2021/12/27 05:37:37;;;;;;;83.70;35.80;;;;;;;-14.54;72.66;100780.17;84545;1332;22602;-73
2021/12/27 05:39:50;;;;;;;68.40;28.10;;;;;;;-14.53;72.92;100784.24;84577;1332;23705;-74
2021/12/27 05:41:59;;;;;;;91.50;35.80;;;;;;;-14.51;72.89;100782.73;84543;1327;22642;-72
2021/12/27 05:44:10;;;;;;;80.20;35.10;;;;;;;-14.51;73.10;100782.91;84534;1333;22693;-73
2021/12/27 05:46:20;;;;;;;76.90;34.00;;;;;;;-14.50;72.90;100782.95;84579;1327;23221;-74
2021/12/27 05:48:29;;;;;;;86.30;35.20;;;;;;;-14.51;73.17;100781.73;84594;1329;22598;-73
2021/12/27 05:50:38;;;;;;;91.20;36.80;;;;;;;-14.51;72.90;100784.92;84591;1329;22622;-73
2021/12/27 05:52:47;;;;;;;87.70;35.60;;;;;;;-14.49;73.28;100779.66;84585;1330;22560;-73
2021/12/27 05:54:56;;;;;;;87.50;36.40;;;;;;;-14.50;73.01;100777.45;84575;1329;22672;-73
2021/12/27 05:57:08;;;;;;;86.30;38.50;;;;;;;-14.49;72.86;100775.16;83906;1329;1003038;-72
2021/12/27 05:59:17;;;;;;;84.50;38.60;;;;;;;-14.49;73.08;100770.77;84576;1329;23467;-73
2021/12/27 06:01:29;;;;;;;99.00;43.70;;;;;;;-14.49;72.88;100765.79;84618;1328;22927;-72
2021/12/27 06:03:41;;;;;;;97.10;38.90;;;;;;;-14.48;72.90;100766.90;84597;1330;22732;-75
2021/12/27 06:05:53;;;;;;;85.00;38.50;;;;;;;-14.45;72.72;100768.90;84540;1331;22823;-73
2021/12/27 06:08:02;;;;;;;77.60;36.30;;;;;;;-14.42;72.86;100771.75;84594;1329;24046;-74
2021/12/27 06:10:12;;;;;;;86.00;35.50;;;;;;;-14.46;72.50;100774.84;84562;1333;24113;-73
2021/12/27 06:12:23;;;;;;;101.60;39.50;;;;;;;-14.55;72.18;100780.11;84598;1329;22774;-74
2021/12/27 06:14:39;;;;;;;92.80;40.20;;;;;;;-14.60;72.26;100779.46;84605;1329;22918;-71
2021/12/27 06:16:51;;;;;;;101.40;42.20;;;;;;;-14.60;72.64;100782.16;83903;1329;1003407;-73
2021/12/27 06:19:03;;;;;;;98.90;41.30;;;;;;;-14.62;72.23;100782.03;84563;1331;24222;-71
2021/12/27 06:21:12;;;;;;;97.10;39.00;;;;;;;-14.65;72.35;100785.83;84545;1332;22762;-73
2021/12/27 06:23:21;;;;;;;98.50;42.70;;;;;;;-14.67;72.69;100784.48;84590;1327;23071;-73
2021/12/27 06:25:30;;;;;;;102.40;41.50;;;;;;;-14.63;72.59;100785.25;84574;1329;22711;-71
2021/12/27 06:27:42;;;;;;;101.60;41.90;;;;;;;-14.62;72.36;100781.02;84597;1329;22635;-71
2021/12/27 06:29:51;;;;;;;101.50;40.40;;;;;;;-14.66;72.58;100780.91;84621;1330;24165;-73
2021/12/27 06:32:00;;;;;;;99.10;40.80;;;;;;;-14.68;72.20;100783.56;83877;1329;1003268;-74
2021/12/27 06:34:09;;;;;;;94.00;39.00;;;;;;;-14.71;72.67;100783.36;84596;1330;23979;-72
2021/12/27 06:36:19;;;;;;;89.30;38.70;;;;;;;-14.68;72.75;100783.77;84638;1329;22707;-73
2021/12/27 06:38:26;;;;;;;;;;;;;;;-14.65;72.80;100781.48;84617;1329;22603;-72
2021/12/27 06:40:35;;;;;;;97.90;37.80;;;;;;;-14.64;72.59;100779.88;84583;1329;25466;-72
2021/12/27 06:42:46;;;;;;;84.70;34.10;;;;;;;-14.67;72.41;100784.64;83879;1329;1003102;-72
2021/12/27 06:44:56;;;;;;;94.30;40.80;;;;;;;-14.72;72.35;100782.30;83886;1329;1003831;-72
2021/12/27 06:47:05;;;;;;;96.20;37.80;;;;;;;-14.78;72.19;100779.75;84573;1330;23855;-72
2021/12/27 06:49:14;;;;;;;89.60;38.50;;;;;;;-14.78;72.53;100784.20;84627;1330;22638;-73
2021/12/27 06:51:23;;;;;;;89.40;37.70;;;;;;;-14.81;72.21;100790.24;83878;1330;1002946;-72
2021/12/27 06:53:32;;;;;;;92.80;40.80;;;;;;;-14.77;72.70;100792.05;84598;1327;23033;-72
2021/12/27 06:55:41;;;;;;;89.80;37.80;;;;;;;-14.76;72.34;100792.44;84621;1329;22554;-73
2021/12/27 06:57:50;;;;;;;92.00;38.30;;;;;;;-14.73;72.74;100790.30;83883;1330;1003140;-72
2021/12/27 06:59:59;;;;;;;98.80;38.80;;;;;;;-14.72;72.77;100794.88;84617;1330;24075;-71
2021/12/27 07:02:11;;;;;;;82.10;37.70;;;;;;;-14.67;72.72;100795.53;84609;1329;22815;-71
2021/12/27 07:04:20;;;;;;;93.50;38.20;;;;;;;-14.61;72.78;100798.12;84597;1325;22650;-73
2021/12/27 07:06:28;;;;;;;85.30;38.40;;;;;;;-14.57;72.72;100800.77;84602;1329;22710;-72
2021/12/27 07:08:37;;;;;;;86.70;36.00;;;;;;;-14.53;72.72;100797.45;84597;1332;24282;-72
2021/12/27 07:10:50;;;;;;;85.50;36.20;;;;;;;-14.52;72.83;100794.40;83843;1332;1014863;-72
2021/12/27 07:13:03;;;;;;;95.50;41.00;;;;;;;-14.51;72.74;100787.73;84617;1329;22777;-73
2021/12/27 07:15:15;;;;;;;93.90;36.80;;;;;;;-14.45;72.93;100785.16;84628;1329;22695;-73
2021/12/27 07:17:27;;;;;;;79.10;36.70;;;;;;;-14.38;72.71;100786.10;84598;1330;24481;-73
2021/12/27 07:19:37;;;;;;;96.10;41.50;;;;;;;-14.33;73.09;100785.44;84608;1325;22827;-73
2021/12/27 07:21:49;;;;;;;94.10;38.30;;;;;;;-14.28;72.94;100790.14;84611;1330;22861;-72
2021/12/27 07:23:58;;;;;;;88.50;37.20;;;;;;;-14.25;72.65;100793.84;84588;1330;25692;-71
2021/12/27 07:26:10;;;;;;;;;;;;;;;-14.26;72.56;100793.81;84630;1325;22803;-72
2021/12/27 07:28:20;;;;;;;89.30;38.60;;;;;;;-14.24;72.53;100793.77;84601;1330;24203;-72
2021/12/27 07:30:32;;;;;;;95.10;41.10;;;;;;;-14.19;72.69;100793.57;84636;1329;25625;-72
2021/12/27 07:32:45;;;;;;;90.20;39.00;;;;;;;-14.13;72.53;100798.70;84607;1330;22647;-72
2021/12/27 07:34:57;;;;;;;101.40;42.60;;;;;;;-14.09;72.78;100799.95;84646;1329;24178;-72
2021/12/27 07:37:09;;;;;;;104.90;39.80;;;;;;;-14.00;72.87;100800.56;84598;1329;22835;-73
2021/12/27 07:39:21;;;;;;;106.40;41.80;;;;;;;-13.93;73.04;100799.20;84589;1330;22624;-73
2021/12/27 07:41:32;;;;;;;107.00;42.90;;;;;;;-13.84;72.98;100798.10;83930;1329;1003789;-73
2021/12/27 07:43:41;;;;;;;93.10;42.70;;;;;;;-13.76;72.94;100794.94;84527;1332;22795;-74
2021/12/27 07:45:53;;;;;;;109.10;45.80;;;;;;;-13.73;72.83;100800.02;84585;1329;22853;-72
2021/12/27 07:48:07;;;;;;;108.30;46.10;;;;;;;-13.63;73.09;100802.48;83852;1330;1002996;-78
2021/12/27 07:50:21;;;;;;;99.30;45.50;;;;;;;-13.52;73.22;100800.52;84534;1333;22719;-72
2021/12/27 07:52:30;;;;;;;111.70;44.90;;;;;;;-13.40;73.15;100797.29;84530;1332;22669;-71
2021/12/27 07:54:41;;;;;;;119.00;48.80;;;;;;;-13.23;73.21;100790.94;83897;1330;1003658;-73
2021/12/27 07:56:53;;;;;;;109.70;46.10;;;;;;;-13.11;73.36;100793.71;84584;1330;22780;-70
2021/12/27 07:59:05;;;;;;;108.10;44.10;;;;;;;-12.98;73.50;100790.84;84600;1329;22761;-70
2021/12/27 08:01:18;;;;;;;105.20;45.00;;;;;;;-12.84;73.62;100793.55;84591;1330;25480;-69
2021/12/27 08:03:28;;;;;;;104.70;42.50;;;;;;;-12.75;73.34;100792.11;84592;1333;24001;-71
2021/12/27 08:05:41;;;;;;;98.30;43.30;;;;;;;-12.62;73.53;100791.20;83887;1327;1002946;-69
2021/12/27 08:07:51;;;;;;;113.20;45.70;;;;;;;-12.55;73.35;100792.48;84601;1329;22584;-69
2021/12/27 08:09:58;;;;;;;;;;;;;;;-12.46;73.48;100795.03;84607;1329;22580;-70
2021/12/27 08:12:12;;;;;;;114.40;46.40;;;;;;;-12.39;73.35;100790.56;84610;1329;24286;-70
2021/12/27 08:14:24;;;;;;;109.00;44.70;;;;;;;-12.30;73.61;100795.85;84588;1330;22785;-70
2021/12/27 08:16:36;;;;;;;107.30;42.60;;;;;;;-12.20;73.78;100797.77;84618;1329;22631;-70
2021/12/27 08:18:46;;;;;;;113.90;44.70;;;;;;;-12.08;73.65;100801.36;84580;1330;22626;-71
2021/12/27 08:20:59;;;;;;;103.80;45.50;;;;;;;-12.00;73.69;100801.99;84628;1331;22589;-70
2021/12/27 08:23:12;;;;;;;117.60;49.20;;;;;;;-11.91;73.63;100800.30;84517;1334;22618;-71
2021/12/27 08:25:21;;;;;;;131.80;54.30;;;;;;;-11.86;73.85;100796.07;84599;1329;22616;-71
2021/12/27 08:27:34;;;;;;;132.20;57.60;;;;;;;-11.76;74.28;100794.98;84585;1330;24339;-71
2021/12/27 08:29:43;;;;;;;116.70;53.70;;;;;;;-11.68;74.15;100795.06;84596;1329;25521;-72
2021/12/27 08:31:53;;;;;;;75.90;32.90;;;;;;;-11.57;75.49;100794.35;84615;1329;22715;-75
2021/12/27 08:34:02;;;;;;;89.00;37.50;;;;;;;-11.37;76.56;100793.99;84597;1330;25294;-75
2021/12/27 08:36:14;;;;;;;91.10;35.70;;;;;;;-11.19;76.76;100800.86;83924;1330;1003898;-72
2021/12/27 08:38:23;;;;;;;76.40;32.40;;;;;;;-11.03;77.82;100798.24;84588;1329;22627;-74
2021/12/27 08:40:34;;;;;;;76.30;32.20;;;;;;;-10.85;78.36;100794.67;84621;1329;22708;-72
2021/12/27 08:42:43;;;;;;;79.90;32.80;;;;;;;-10.61;78.58;100794.09;84604;1330;22581;-73
2021/12/27 08:44:52;;;;;;;73.50;31.30;;;;;;;-10.39;78.78;100795.08;84588;1330;22568;-71
2021/12/27 08:47:04;;;;;;;73.70;31.10;;;;;;;-10.17;79.45;100790.51;84570;1329;24280;-71
2021/12/27 08:49:14;;;;;;;81.00;31.60;;;;;;;-9.94;79.36;100789.13;84587;1330;22787;-70
2021/12/27 08:51:23;;;;;;;70.30;32.30;;;;;;;-9.73;79.21;100788.48;84609;1329;24178;-72
2021/12/27 08:53:33;;;;;;;69.50;31.20;;;;;;;-9.54;78.99;100784.88;84612;1330;22606;-73
2021/12/27 08:55:42;;;;;;;61.10;29.20;;;;;;;-9.34;79.17;100783.63;83905;1327;1003429;-75
2021/12/27 08:57:51;;;;;;;66.70;29.30;;;;;;;-9.12;79.16;100789.11;84588;1330;24040;-72
2021/12/27 09:00:05;;;;;;;65.00;29.00;;;;;;;-8.94;78.80;100790.64;83936;1329;1003808;-74
2021/12/27 09:02:14;;;;;;;65.70;28.40;;;;;;;-8.73;78.61;100786.71;84586;1333;25301;-72
2021/12/27 09:04:23;;;;;;;61.80;27.50;;;;;;;-8.47;78.63;100784.66;83868;1329;1003166;-71
2021/12/27 09:06:34;;;;;;;65.90;29.40;;;;;;;-8.22;78.08;100784.91;84591;1321;22698;-75
2021/12/27 09:08:42;;;;;;;61.90;27.70;;;;;;;-7.98;77.59;100784.59;84549;1329;23944;-74
2021/12/27 09:10:52;;;;;;;68.00;30.50;;;;;;;-7.76;77.14;100783.69;84595;1329;22643;-72
2021/12/27 09:13:01;;;;;;;62.90;30.40;;;;;;;-7.53;76.76;100780.56;84594;1329;22579;-73
2021/12/27 09:15:11;;;;;;;69.80;33.80;;;;;;;-7.37;76.05;100782.39;83930;1329;1003573;-73
2021/12/27 09:17:21;;;;;;;69.20;31.30;;;;;;;-7.24;75.73;100776.84;84585;1330;22605;-72
2021/12/27 09:19:31;;;;;;;59.50;29.60;;;;;;;-7.06;75.62;100771.11;83923;1331;1003057;-69
2021/12/27 09:21:43;;;;;;;62.60;28.60;;;;;;;-6.95;75.14;100771.35;84545;1335;22613;-73
2021/12/27 09:23:53;;;;;;;64.70;29.30;;;;;;;-6.82;75.12;100771.53;84610;1330;23884;-71
2021/12/27 09:26:05;;;;;;;55.70;28.90;;;;;;;-6.52;74.99;100773.66;83895;1330;1003108;-72
2021/12/27 09:28:14;;;;;;;60.40;29.00;;;;;;;-6.25;74.14;100766.67;84589;1325;24334;-72
2021/12/27 09:30:24;;;;;;;65.30;32.70;;;;;;;-6.04;73.40;100763.00;84615;1330;23012;-69
2021/12/27 09:32:37;;;;;;;65.70;30.90;;;;;;;-5.80;73.53;100752.94;84594;1329;22720;-71
2021/12/27 09:34:46;;;;;;;65.10;31.20;;;;;;;-5.49;73.06;100747.16;83841;1333;1003304;-70
2021/12/27 09:36:55;;;;;;;75.80;35.10;;;;;;;-5.27;72.64;100740.75;84605;1329;22554;-70
2021/12/27 09:39:04;;;;;;;84.90;40.10;;;;;;;-5.07;72.00;100739.33;84578;1329;22591;-73
2021/12/27 09:41:19;;;;;;;75.00;36.20;;;;;;;-4.86;71.55;100741.34;84620;1322;22619;-70
2021/12/27 09:43:28;;;;;;;69.70;36.00;;;;;;;-4.70;70.82;100737.23;83834;1333;1003290;-71
2021/12/27 09:45:38;;;;;;;61.70;33.70;;;;;;;-4.52;70.62;100730.75;84628;1330;22788;-69
2021/12/27 09:47:50;;;;;;;82.00;40.10;;;;;;;-4.37;70.01;100733.23;84601;1323;22633;-70